createdAt,value
2022-08-18T00:01:51.576Z,100380.38
2022-08-18T00:04:35.758Z,100378.69
2022-08-18T00:07:02.585Z,100376.16
2022-08-18T00:09:32.159Z,100379.81
2022-08-18T00:12:01.995Z,100376.41
2022-08-18T00:14:28.476Z,100375.59
2022-08-18T00:16:54.998Z,100365.94
2022-08-18T00:19:43.630Z,100365.13
2022-08-18T00:22:14.601Z,100359.03
2022-08-18T00:24:48.426Z,100356.44
2022-08-18T00:27:19.503Z,100361.75
2022-08-18T00:29:48.569Z,100361.75
2022-08-18T00:32:17.927Z,100350.31
2022-08-18T00:34:44.555Z,100349.44
2022-08-18T00:37:10.990Z,100343.28
2022-08-18T00:39:40.616Z,100345.06
2022-08-18T00:42:28.684Z,100352.19
2022-08-18T00:45:03.832Z,100352.22
2022-08-18T00:47:36.448Z,100355.78
2022-08-18T00:50:15.391Z,100352.38
2022-08-18T00:52:45.193Z,100358.63
2022-08-18T00:55:11.653Z,100351.72
2022-08-18T00:57:38.098Z,100359.72
2022-08-18T01:00:11.788Z,100358.03
2022-08-18T01:02:45.198Z,100366.94
2022-08-18T01:05:20.896Z,100365.38
2022-08-18T01:07:48.773Z,100370.75
2022-08-18T01:10:19.290Z,100362.06
2022-08-18T01:12:50.440Z,100363.94
2022-08-18T01:15:29.398Z,100364.00
2022-08-18T01:18:19.279Z,100359.63
2022-08-18T01:21:11.273Z,100365.88
2022-08-18T01:23:38.371Z,100373.88
2022-08-18T01:26:04.946Z,100369.53
2022-08-18T01:28:34.051Z,100366.03
2022-08-18T01:31:01.803Z,100367.00
2022-08-18T01:33:32.554Z,100362.59
2022-08-18T01:36:03.586Z,100362.72
2022-08-18T01:38:32.132Z,100361.06
2022-08-18T01:41:26.840Z,100358.50
2022-08-18T01:43:46.809Z,100360.34
2022-08-18T01:46:20.234Z,100363.09
2022-08-18T01:48:48.699Z,100354.31
2022-08-18T01:51:15.890Z,100350.00
2022-08-18T01:53:42.408Z,100354.50
2022-08-18T01:56:09.187Z,100358.13
2022-08-18T01:58:36.542Z,100363.50
2022-08-18T02:01:03.836Z,100366.31
2022-08-18T02:03:36.639Z,100371.75
2022-08-18T02:06:07.153Z,100367.44
2022-08-18T02:08:34.692Z,100370.13
2022-08-18T02:11:01.515Z,100357.84
2022-08-18T02:13:28.011Z,100356.16
2022-08-18T02:15:54.457Z,100356.19
2022-08-18T02:18:47.257Z,100354.50
2022-08-18T02:21:19.279Z,100351.94
2022-08-18T02:23:52.752Z,100357.28
2022-08-18T02:26:20.700Z,100360.84
2022-08-18T02:28:47.258Z,100357.31
2022-08-18T02:31:16.788Z,100368.78
2022-08-18T02:33:51.642Z,100366.16
2022-08-18T02:36:19.628Z,100361.72
2022-08-18T02:38:54.876Z,100378.47
2022-08-18T02:41:29.374Z,100383.78
2022-08-18T02:43:56.559Z,100376.75
2022-08-18T02:46:23.488Z,100375.94
2022-08-18T02:48:52.220Z,100373.34
2022-08-18T02:51:18.986Z,100376.97
2022-08-18T02:53:46.892Z,100378.69
2022-08-18T02:56:41.639Z,100380.50
2022-08-18T02:59:20.031Z,100380.56
2022-08-18T03:01:48.877Z,100385.06
2022-08-18T03:04:21.119Z,100386.88
2022-08-18T03:06:49.475Z,100386.00
2022-08-18T03:09:17.579Z,100386.00
2022-08-18T03:11:44.990Z,100383.38
2022-08-18T03:14:11.848Z,100391.31
2022-08-18T03:16:52.849Z,100390.44
2022-08-18T03:19:22.801Z,100396.63
2022-08-18T03:21:49.230Z,100391.44
2022-08-18T03:24:22.494Z,100397.66
2022-08-18T03:26:49.962Z,100408.31
2022-08-18T03:29:16.584Z,100409.19
2022-08-18T03:31:43.555Z,100415.38
2022-08-18T03:34:10.098Z,100418.09
2022-08-18T03:36:37.023Z,100419.03
2022-08-18T03:39:09.517Z,100415.56
2022-08-18T03:41:57.655Z,100414.69
2022-08-18T03:44:25.086Z,100413.13
2022-08-18T03:46:52.060Z,100413.38
2022-08-18T03:49:20.360Z,100406.22
2022-08-18T03:51:47.433Z,100414.16
2022-08-18T03:54:16.423Z,100411.53
2022-08-18T03:56:43.997Z,100399.25
2022-08-18T03:59:14.612Z,100402.75
2022-08-18T04:01:42.170Z,100396.63
2022-08-18T04:04:11.679Z,100403.72
2022-08-18T04:06:45.218Z,100413.41
2022-08-18T04:09:14.697Z,100418.69
2022-08-18T04:11:44.964Z,100418.69
2022-08-18T04:14:13.373Z,100419.63
2022-08-18T04:16:40.611Z,100426.66
2022-08-18T04:19:09.086Z,100428.44
2022-08-18T04:21:39.393Z,100423.19
2022-08-18T04:24:07.373Z,100424.94
2022-08-18T04:26:36.709Z,100430.28
2022-08-18T04:29:04.432Z,100428.53
2022-08-18T04:31:31.413Z,100429.41
2022-08-18T04:33:59.488Z,100432.91
2022-08-18T04:36:27.097Z,100435.50
2022-08-18T04:38:56.375Z,100439.03
2022-08-18T04:41:26.223Z,100431.94
2022-08-18T04:43:54.444Z,100439.88
2022-08-18T04:46:24.074Z,100439.03
2022-08-18T04:48:50.915Z,100438.13
2022-08-18T04:52:37.601Z,100438.16
2022-08-18T04:54:06.207Z,100439.03
2022-08-18T04:56:35.240Z,100444.38
2022-08-18T04:59:07.013Z,100431.13
2022-08-18T05:01:39.356Z,100439.94
2022-08-18T05:04:06.157Z,100439.94
2022-08-18T05:06:32.940Z,100437.41
2022-08-18T05:09:01.926Z,100440.00
2022-08-18T05:11:31.589Z,100443.53
2022-08-18T05:13:58.135Z,100451.47
2022-08-18T05:16:27.855Z,100444.53
2022-08-18T05:18:54.736Z,100448.00
2022-08-18T05:21:24.388Z,100450.59
2022-08-18T05:23:51.232Z,100443.50
2022-08-18T05:26:18.703Z,100442.56
2022-08-18T05:28:46.094Z,100443.44
2022-08-18T05:31:19.530Z,100450.44
2022-08-18T05:33:46.663Z,100449.50
2022-08-18T05:36:25.092Z,100458.31
2022-08-18T05:39:19.354Z,100457.41
2022-08-18T05:41:55.791Z,100465.22
2022-08-18T05:44:26.013Z,100464.25
2022-08-18T05:49:21.821Z,100472.09
2022-08-18T05:51:51.964Z,100473.84
2022-08-18T05:54:37.946Z,100465.81
2022-08-18T05:57:10.160Z,100470.22
2022-08-18T05:59:39.125Z,100461.41
2022-08-18T06:02:16.310Z,100453.44
2022-08-18T06:04:49.094Z,100448.94
2022-08-18T06:07:19.102Z,100449.72
2022-08-18T06:09:50.678Z,100455.88
2022-08-18T06:12:46.640Z,100454.09
2022-08-18T06:15:25.764Z,100455.84
2022-08-18T06:18:04.753Z,100466.31
2022-08-18T06:20:45.901Z,100461.16
2022-08-18T06:23:25.947Z,100465.53
2022-08-18T06:26:16.913Z,100463.72
2022-08-18T06:28:46.585Z,100471.75
2022-08-18T06:31:24.753Z,100477.84
2022-08-18T06:34:03.602Z,100486.50
2022-08-18T06:36:38.989Z,100478.56
2022-08-18T06:39:27.062Z,100486.38
2022-08-18T06:41:54.686Z,100480.41
2022-08-18T06:44:28.631Z,100482.94
2022-08-18T06:47:10.858Z,100489.03
2022-08-18T06:49:51.289Z,100492.53
2022-08-18T06:52:38.699Z,100498.75
2022-08-18T06:55:09.094Z,100501.31
2022-08-18T06:57:52.921Z,100501.22
2022-08-18T07:00:19.472Z,100507.22
2022-08-18T07:02:50.993Z,100504.50
2022-08-18T07:05:21.971Z,100510.63
2022-08-18T07:08:04.377Z,100504.31
2022-08-18T07:10:43.779Z,100513.09
2022-08-18T07:13:13.147Z,100515.69
2022-08-18T07:15:40.180Z,100518.28
2022-08-18T07:18:08.353Z,100513.81
2022-08-18T07:20:46.440Z,100523.66
2022-08-18T07:23:28.180Z,100517.44
2022-08-18T07:26:08.660Z,100517.22
2022-08-18T07:28:50.176Z,100518.88
2022-08-18T07:31:37.746Z,100525.84
2022-08-18T07:34:12.449Z,100517.84
2022-08-18T07:36:50.638Z,100520.53
2022-08-18T07:39:27.738Z,100525.75
2022-08-18T07:42:33.075Z,100523.84
2022-08-18T07:45:12.653Z,100516.75
2022-08-18T07:47:48.641Z,100522.00
2022-08-18T07:50:26.988Z,100514.88
2022-08-18T07:53:29.774Z,100511.31
2022-08-18T07:56:03.195Z,100511.22
2022-08-18T07:58:36.295Z,100515.44
2022-08-18T08:01:13.604Z,100511.00
2022-08-18T08:04:04.826Z,100518.88
2022-08-18T08:06:55.407Z,100516.19
2022-08-18T08:09:42.552Z,100509.91
2022-08-18T08:12:31.561Z,100513.19
2022-08-18T08:15:08.159Z,100517.41
2022-08-18T08:17:40.378Z,100523.59
2022-08-18T08:20:13.824Z,100520.91
2022-08-18T08:22:53.502Z,100517.34
2022-08-18T08:25:46.482Z,100513.75
2022-08-18T08:28:28.643Z,100517.09
2022-08-18T08:31:33.146Z,100515.25
2022-08-18T08:34:12.138Z,100505.38
2022-08-18T08:36:44.949Z,100508.88
2022-08-18T08:39:19.257Z,100507.13
2022-08-18T08:41:50.651Z,100511.59
2022-08-18T08:44:25.051Z,100510.41
2022-08-18T08:46:56.917Z,100514.84
2022-08-18T08:49:53.165Z,100510.16
2022-08-18T08:52:40.684Z,100514.53
2022-08-18T08:55:12.429Z,100516.94
2022-08-18T08:57:56.125Z,100510.50
2022-08-18T09:00:22.645Z,100513.88
2022-08-18T09:03:06.742Z,100516.16
2022-08-18T09:06:08.475Z,100513.38
2022-08-18T09:09:06.819Z,100501.66
2022-08-18T09:11:49.292Z,100497.00
2022-08-18T09:14:47.562Z,100496.91
2022-08-18T09:17:35.385Z,100494.84
2022-08-18T09:20:17.476Z,100488.47
2022-08-18T09:22:57.096Z,100492.66
2022-08-18T09:25:39.188Z,100496.94
2022-08-18T09:28:14.660Z,100488.84
2022-08-18T09:31:08.612Z,100491.41
2022-08-18T09:33:38.462Z,100500.19
2022-08-18T09:36:25.960Z,100507.94
2022-08-18T09:39:20.612Z,100504.19
2022-08-18T09:41:54.991Z,100504.06
2022-08-18T09:44:48.180Z,100497.63
2022-08-18T09:47:22.002Z,100494.81
2022-08-18T09:50:27.522Z,100499.97
2022-08-18T09:52:59.166Z,100497.75
2022-08-18T09:55:30.809Z,100507.41
2022-08-18T09:58:22.941Z,100502.72
2022-08-18T10:01:19.577Z,100503.44
2022-08-18T10:04:14.751Z,100505.69
2022-08-18T10:06:43.014Z,100511.50
2022-08-18T10:09:36.517Z,100516.59
2022-08-18T10:12:15.873Z,100521.97
2022-08-18T10:15:34.462Z,100513.81
2022-08-18T10:18:44.869Z,100509.19
2022-08-18T10:21:18.830Z,100509.63
2022-08-18T10:23:58.171Z,100511.06
2022-08-18T10:26:37.328Z,100508.72
2022-08-18T10:29:09.619Z,100508.34
2022-08-18T10:31:54.817Z,100508.06
2022-08-18T10:34:52.177Z,100503.72
2022-08-18T10:37:26.491Z,100502.28
2022-08-18T10:39:59.325Z,100507.25
2022-08-18T10:42:31.478Z,100500.28
2022-08-18T10:45:22.111Z,100504.66
2022-08-18T10:48:29.286Z,100514.19
2022-08-18T10:51:28.236Z,100515.94
2022-08-18T10:54:19.697Z,100517.59
2022-08-18T10:56:52.832Z,100514.00
2022-08-18T10:59:50.690Z,100508.72
2022-08-18T11:02:23.618Z,100503.34
2022-08-18T11:04:59.223Z,100497.88
2022-08-18T11:07:29.175Z,100499.03
2022-08-18T11:10:27.890Z,100504.94
2022-08-18T11:13:23.940Z,100506.06
2022-08-18T11:16:13.695Z,100503.16
2022-08-18T11:18:43.114Z,100512.75
2022-08-18T11:21:41.967Z,100510.16
2022-08-18T11:24:13.452Z,100505.06
2022-08-18T11:26:52.823Z,100509.41
2022-08-18T11:29:24.737Z,100508.66
2022-08-18T11:31:59.638Z,100508.06
2022-08-18T11:34:34.821Z,100500.00
2022-08-18T11:37:14.437Z,100497.16
2022-08-18T11:39:49.372Z,100497.22
2022-08-18T11:42:25.119Z,100500.19
2022-08-18T11:44:54.878Z,100501.16
2022-08-18T11:50:12.610Z,100499.78
2022-08-18T11:52:53.644Z,100503.47
2022-08-18T11:55:29.621Z,100505.19
2022-08-18T11:57:59.138Z,100510.56
2022-08-18T12:00:48.802Z,100509.84
2022-08-18T12:03:28.404Z,100508.00
2022-08-18T12:05:58.995Z,100514.97
2022-08-18T12:08:56.759Z,100518.94
2022-08-18T12:11:27.122Z,100524.16
2022-08-18T12:14:01.850Z,100522.03
2022-08-18T12:16:48.450Z,100512.13
2022-08-18T12:19:17.463Z,100506.69
2022-08-18T12:21:51.074Z,100489.56
2022-08-18T12:24:26.394Z,100493.94
2022-08-18T12:27:02.219Z,100499.16
2022-08-18T12:29:47.039Z,100495.78
2022-08-18T12:32:18.135Z,100506.91
2022-08-18T12:35:05.293Z,100505.81
2022-08-18T12:37:58.369Z,100510.94
2022-08-18T12:40:20.941Z,100516.16
2022-08-18T12:42:49.463Z,100514.56
2022-08-18T12:45:16.445Z,100508.88
2022-08-18T12:47:42.912Z,100509.56
2022-08-18T12:50:09.537Z,100497.84
2022-08-18T12:52:37.075Z,100502.31
2022-08-18T12:55:08.728Z,100501.28
2022-08-18T12:57:53.367Z,100490.78
2022-08-18T13:00:21.161Z,100497.38
2022-08-18T13:02:54.869Z,100492.53
2022-08-18T13:05:26.550Z,100492.28
2022-08-18T13:08:04.514Z,100492.78
2022-08-18T13:10:42.981Z,100488.00
2022-08-18T13:13:12.034Z,100484.47
2022-08-18T13:15:38.674Z,100492.25
2022-08-18T13:18:05.284Z,100489.66
2022-08-18T13:20:31.822Z,100482.31
2022-08-18T13:22:58.293Z,100476.13
2022-08-18T13:25:32.293Z,100481.25
2022-08-18T13:28:06.087Z,100469.09
2022-08-18T13:30:33.117Z,100467.09
2022-08-18T13:33:34.679Z,100462.41
2022-08-18T13:35:52.054Z,100457.94
2022-08-18T13:38:26.090Z,100452.00
2022-08-18T13:40:57.679Z,100445.13
2022-08-18T13:43:31.988Z,100444.13
2022-08-18T13:45:59.818Z,100459.28
2022-08-18T13:48:28.330Z,100457.06
2022-08-18T13:50:58.200Z,100450.00
2022-08-18T13:53:27.648Z,100459.59
2022-08-18T13:55:54.789Z,100458.34
2022-08-18T13:58:21.396Z,100457.41
2022-08-18T14:01:05.723Z,100453.94
2022-08-18T14:03:47.347Z,100458.00
2022-08-18T14:06:14.807Z,100466.69
2022-08-18T14:08:41.390Z,100473.44
2022-08-18T14:11:09.474Z,100468.25
2022-08-18T14:13:38.281Z,100464.22
2022-08-18T14:16:18.937Z,100469.75
2022-08-18T14:19:10.256Z,100468.59
2022-08-18T14:22:00.268Z,100454.56
2022-08-18T14:24:48.616Z,100448.41
2022-08-18T14:27:16.175Z,100444.34
2022-08-18T14:29:45.458Z,100442.66
2022-08-18T14:32:18.047Z,100438.81
2022-08-18T14:34:50.808Z,100436.16
2022-08-18T14:37:17.791Z,100437.31
2022-08-18T14:39:48.069Z,100439.19
2022-08-18T14:42:19.010Z,100432.97
2022-08-18T14:44:45.789Z,100430.19
2022-08-18T14:47:12.362Z,100425.41
2022-08-18T14:49:48.166Z,100426.03
2022-08-18T14:52:14.724Z,100426.22
2022-08-18T14:54:41.283Z,100428.28
2022-08-18T14:57:12.856Z,100423.97
2022-08-18T14:59:41.048Z,100428.81
2022-08-18T15:02:11.256Z,100423.34
2022-08-18T15:04:55.788Z,100429.81
2022-08-18T15:07:24.421Z,100422.53
2022-08-18T15:09:50.853Z,100425.50
2022-08-18T15:12:37.517Z,100429.09
2022-08-18T15:15:08.453Z,100424.78
2022-08-18T15:17:38.263Z,100428.25
2022-08-18T15:20:06.574Z,100432.84
2022-08-18T15:22:56.822Z,100429.38
2022-08-18T15:25:41.909Z,100436.56
2022-08-18T15:28:16.383Z,100438.66
2022-08-18T15:30:44.855Z,100423.72
2022-08-18T15:33:15.441Z,100438.78
2022-08-18T15:35:44.394Z,100435.53
2022-08-18T15:38:14.807Z,100434.47
2022-08-18T15:40:49.445Z,100441.59
2022-08-18T15:43:25.286Z,100438.59
2022-08-18T15:45:57.756Z,100435.94
2022-08-18T15:48:26.422Z,100434.84
2022-08-18T15:50:53.085Z,100435.88
2022-08-18T15:53:22.531Z,100431.31
2022-08-18T15:55:50.298Z,100434.03
2022-08-18T15:58:22.415Z,100429.66
2022-08-18T16:00:53.099Z,100417.41
2022-08-18T16:03:21.190Z,100420.44
2022-08-18T16:05:48.063Z,100413.63
2022-08-18T16:08:18.368Z,100411.91
2022-08-18T16:10:45.191Z,100417.44
2022-08-18T16:13:14.422Z,100407.66
2022-08-18T16:15:42.320Z,100410.25
2022-08-18T16:18:10.653Z,100405.03
2022-08-18T16:20:37.710Z,100407.03
2022-08-18T16:23:05.378Z,100385.84
2022-08-18T16:25:32.001Z,100381.53
2022-08-18T16:27:59.680Z,100384.38
2022-08-18T16:30:27.818Z,100381.97
2022-08-18T16:32:54.516Z,100390.09
2022-08-18T16:35:22.315Z,100381.31
2022-08-18T16:37:49.712Z,100385.00
2022-08-18T16:40:18.823Z,100380.56
2022-08-18T16:42:46.105Z,100381.53
2022-08-18T16:45:14.698Z,100381.53
2022-08-18T16:47:41.397Z,100388.03
2022-08-18T16:50:10.733Z,100383.88
2022-08-18T16:52:37.217Z,100383.81
2022-08-18T16:55:04.552Z,100381.94
2022-08-18T16:57:54.794Z,100379.41
2022-08-18T17:00:41.386Z,100369.28
2022-08-18T17:03:26.783Z,100379.03
2022-08-18T17:06:05.086Z,100362.28
2022-08-18T17:08:34.087Z,100352.63
2022-08-18T17:11:06.014Z,100347.41
2022-08-18T17:13:33.256Z,100343.13
2022-08-18T17:15:59.711Z,100337.19
2022-08-18T17:18:27.162Z,100337.16
2022-08-18T17:20:55.524Z,100333.84
2022-08-18T17:23:22.369Z,100332.13
2022-08-18T17:25:49.505Z,100330.34
2022-08-18T17:28:19.149Z,100327.00
2022-08-18T17:30:51.331Z,100330.69
2022-08-18T17:33:32.798Z,100328.13
2022-08-18T17:36:03.717Z,100334.66
2022-08-18T17:38:54.517Z,100333.97
2022-08-18T17:41:21.252Z,100325.94
2022-08-18T17:43:48.123Z,100336.50
2022-08-18T17:46:27.484Z,100336.50
2022-08-18T17:49:03.430Z,100347.31
2022-08-18T17:51:35.836Z,100343.03
2022-08-18T17:54:06.325Z,100346.78
2022-08-18T17:56:44.738Z,100347.81
2022-08-18T17:59:46.531Z,100350.75
2022-08-18T18:02:29.154Z,100355.38
2022-08-18T18:04:59.611Z,100349.41
2022-08-18T18:07:32.772Z,100353.75
2022-08-18T18:10:04.881Z,100350.16
2022-08-18T18:12:33.744Z,100354.91
2022-08-18T18:15:02.069Z,100355.88
2022-08-18T18:17:31.061Z,100352.47
2022-08-18T18:20:15.579Z,100364.75
2022-08-18T18:22:44.028Z,100357.69
2022-08-18T18:25:12.707Z,100363.91
2022-08-18T18:27:47.202Z,100362.22
2022-08-18T18:30:27.817Z,100375.38
2022-08-18T18:33:03.549Z,100364.75
2022-08-18T18:35:54.139Z,100371.00
2022-08-18T18:38:31.871Z,100377.31
2022-08-18T18:41:13.543Z,100373.78
2022-08-18T18:43:43.486Z,100391.56
2022-08-18T18:46:22.847Z,100387.22
2022-08-18T18:49:03.750Z,100381.28
2022-08-18T18:51:43.741Z,100377.78
2022-08-18T18:54:49.790Z,100384.97
2022-08-18T18:57:40.894Z,100382.47
2022-08-18T19:00:21.105Z,100376.41
2022-08-18T19:03:07.002Z,100372.00
2022-08-18T19:05:55.270Z,100381.75
2022-08-18T19:08:35.884Z,100385.44
2022-08-18T19:11:09.069Z,100387.34
2022-08-18T19:13:41.002Z,100385.69
2022-08-18T19:16:23.201Z,100385.78
2022-08-18T19:18:57.789Z,100380.56
2022-08-18T19:22:04.739Z,100399.34
2022-08-18T19:24:29.263Z,100396.72
2022-08-18T19:26:59.943Z,100418.94
2022-08-18T19:29:30.231Z,100401.38
2022-08-18T19:32:11.426Z,100409.38
2022-08-18T19:34:51.567Z,100409.44
2022-08-18T19:37:57.325Z,100411.31
2022-08-18T19:40:40.312Z,100423.59
2022-08-18T19:43:12.789Z,100431.53
2022-08-18T19:46:01.300Z,100431.56
2022-08-18T19:48:34.815Z,100442.22
2022-08-18T19:51:06.834Z,100429.00
2022-08-18T19:53:58.902Z,100439.66
2022-08-18T19:56:33.897Z,100436.19
2022-08-18T19:59:23.284Z,100431.03
2022-08-18T20:01:52.082Z,100425.03
2022-08-18T20:04:24.521Z,100420.78
2022-08-18T20:06:53.792Z,100421.00
2022-08-18T20:09:27.708Z,100420.31
2022-08-18T20:12:39.254Z,100432.78
2022-08-18T20:15:17.425Z,100436.41
2022-08-18T20:18:04.279Z,100442.72
2022-08-18T20:20:40.169Z,100456.88
2022-08-18T20:23:30.046Z,100457.75
2022-08-18T20:25:56.478Z,100465.66
2022-08-18T20:28:35.816Z,100462.22
2022-08-18T20:31:14.256Z,100457.88
2022-08-18T20:33:46.082Z,100463.31
2022-08-18T20:36:19.173Z,100467.03
2022-08-18T20:38:53.082Z,100463.66
2022-08-18T20:41:28.696Z,100466.38
2022-08-18T20:44:21.872Z,100469.31
2022-08-18T20:47:36.669Z,100475.44
2022-08-18T20:50:42.762Z,100478.13
2022-08-18T20:53:18.969Z,100489.75
2022-08-18T20:55:56.865Z,100484.53
2022-08-18T20:58:27.305Z,100483.69
2022-08-18T21:00:57.029Z,100486.38
2022-08-18T21:03:35.550Z,100478.50
2022-08-18T21:06:02.918Z,100478.69
2022-08-18T21:08:31.657Z,100477.06
2022-08-18T21:11:01.801Z,100474.44
2022-08-18T21:13:36.116Z,100468.34
2022-08-18T21:16:02.867Z,100470.19
2022-08-18T21:18:29.378Z,100461.44
2022-08-18T21:20:58.314Z,100470.25
2022-08-18T21:23:29.684Z,100466.84
2022-08-18T21:25:59.597Z,100472.13
2022-08-18T21:28:28.231Z,100449.25
2022-08-18T21:31:42.177Z,100452.91
2022-08-18T21:33:51.015Z,100455.56
2022-08-18T21:36:18.708Z,100453.84
2022-08-18T21:39:05.215Z,100451.34
2022-08-18T21:41:33.632Z,100449.53
2022-08-18T21:44:07.169Z,100446.88
2022-08-18T21:46:33.717Z,100447.75
2022-08-18T21:49:02.348Z,100445.22
2022-08-18T21:51:32.575Z,100444.34
2022-08-18T21:53:59.909Z,100441.75
2022-08-18T21:56:29.399Z,100440.16
2022-08-18T21:59:08.050Z,100430.50
2022-08-18T22:01:35.546Z,100440.09
2022-08-18T22:04:22.325Z,100444.47
2022-08-18T22:06:52.019Z,100446.31
2022-08-18T22:09:41.295Z,100444.50
2022-08-18T22:12:48.451Z,100449.88
2022-08-18T22:15:35.758Z,100444.59
2022-08-18T22:18:08.236Z,100443.69
2022-08-18T22:20:59.053Z,100445.44
2022-08-18T22:23:51.230Z,100441.22
2022-08-18T22:26:17.566Z,100432.47
2022-08-18T22:28:54.561Z,100429.03
2022-08-18T22:31:23.156Z,100431.72
2022-08-18T22:33:51.011Z,100436.06
2022-08-18T22:36:20.650Z,100433.44
2022-08-18T22:38:47.981Z,100435.16
2022-08-18T22:41:15.633Z,100436.91
2022-08-18T22:43:42.120Z,100439.53
2022-08-18T22:46:08.665Z,100450.09
2022-08-18T22:48:35.088Z,100456.19
2022-08-18T22:51:01.582Z,100454.38
2022-08-18T22:53:28.627Z,100456.09
2022-08-18T22:55:57.295Z,100463.13
2022-08-18T22:58:27.979Z,100467.50
2022-08-18T23:00:58.208Z,100475.44
2022-08-18T23:03:34.542Z,100486.03
2022-08-18T23:06:09.550Z,100476.31
2022-08-18T23:08:54.972Z,100467.53
2022-08-18T23:11:23.521Z,100471.94
2022-08-18T23:13:50.174Z,100468.50
2022-08-18T23:16:31.954Z,100461.50
2022-08-18T23:19:01.890Z,100463.38
2022-08-18T23:21:34.189Z,100466.88
2022-08-18T23:24:03.669Z,100470.44
2022-08-18T23:26:30.589Z,100473.97
2022-08-18T23:28:57.230Z,100464.28
2022-08-18T23:31:23.761Z,100466.91
2022-08-18T23:33:50.234Z,100454.56
2022-08-18T23:36:17.747Z,100449.34
2022-08-18T23:38:44.205Z,100445.84
2022-08-18T23:41:13.179Z,100440.66
2022-08-18T23:43:39.657Z,100446.91
2022-08-18T23:46:16.763Z,100436.44
2022-08-18T23:48:44.465Z,100433.91
2022-08-18T23:51:10.931Z,100433.00
2022-08-18T23:53:38.471Z,100429.56
2022-08-18T23:56:06.110Z,100427.88
2022-08-18T23:58:32.551Z,100432.31
